Time;durP1;ratioP1;P1;durP2;ratioP2;P2;SDS_P1;SDS_P2;PMS_P1;PMS_P2;Temp;Humidity;BMP_temperature;BMP_pressure;BME280_temperature;BME280_humidity;BME280_pressure;Samples;Min_cycle;Max_cycle;Signal;HPM_P1;HPM_P2
2021/12/16 00:03:13;;;;;;;1.77;0.50;;;;;;;;;;5044630;28;20101;-77
2021/12/16 00:10:58;;;;;;;3.05;0.90;;;;;;;;;;5050303;28;20036;-78
2021/12/16 00:35:26;;;;;;;2.42;0.55;;;;;;;;;;5049997;28;20064;-78
2021/12/16 00:37:53;;;;;;;4.10;0.90;;;;;;;;;;5054408;28;20657;-78
2021/12/16 00:40:19;;;;;;;2.97;0.65;;;;;;;;;;5060167;28;20157;-78
2021/12/16 00:42:50;;;;;;;1.83;0.70;;;;;;;;;;5047783;28;20060;-78
2021/12/16 00:45:40;;;;;;;2.15;0.80;;;;;;;;;;5047333;28;21263;-77
2021/12/16 00:55:56;;;;;;;3.60;0.95;;;;;;;;;;5049331;28;20118;-78
2021/12/16 00:58:31;;;;;;;2.45;0.80;;;;;;;;;;5051250;28;20060;-77
2021/12/16 01:01:09;;;;;;;2.22;0.70;;;;;;;;;;5047484;28;20060;-77
2021/12/16 01:03:56;;;;;;;1.55;0.70;;;;;;;;;;5051731;28;20090;-77
2021/12/16 01:06:39;;;;;;;2.75;0.80;;;;;;;;;;5046315;28;20282;-77
2021/12/16 01:52:05;;;;;;;2.35;0.65;;;;;;;;;;5062894;28;20057;-76
2021/12/16 01:57:15;;;;;;;2.10;0.88;;;;;;;;;;5067299;28;20056;-77
2021/12/16 01:59:45;;;;;;;1.48;0.60;;;;;;;;;;5067184;28;20106;-77
2021/12/16 02:02:26;;;;;;;2.78;0.75;;;;;;;;;;5066220;28;20068;-77
2021/12/16 02:10:21;;;;;;;1.88;0.50;;;;;;;;;;5065077;28;22093;-77
2021/12/16 02:13:12;;;;;;;0.95;0.50;;;;;;;;;;5068135;28;20068;-78
2021/12/16 02:32:28;;;;;;;1.63;0.57;;;;;;;;;;5042504;28;20188;-79
2021/12/16 02:37:31;;;;;;;1.27;0.40;;;;;;;;;;5048052;28;20125;-78
2021/12/16 02:39:58;;;;;;;2.13;0.67;;;;;;;;;;5029046;28;20052;-80
2021/12/16 02:42:35;;;;;;;2.28;0.60;;;;;;;;;;5060262;28;20053;-77
2021/12/16 02:50:19;;;;;;;2.67;0.60;;;;;;;;;;5043841;28;20330;-78
2021/12/16 02:52:46;;;;;;;3.17;0.70;;;;;;;;;;5044951;28;20090;-78
2021/12/16 02:55:14;;;;;;;0.93;0.40;;;;;;;;;;5041356;28;20057;-77
2021/12/16 02:57:48;;;;;;;2.17;0.70;;;;;;;;;;5061128;28;20052;-78
2021/12/16 03:00:16;;;;;;;1.85;0.73;;;;;;;;;;5063261;28;20052;-78
2021/12/16 03:02:44;;;;;;;2.53;0.70;;;;;;;;;;5065804;28;20052;-80
2021/12/16 03:05:11;;;;;;;3.90;0.80;;;;;;;;;;5063996;28;20488;-77
2021/12/16 03:07:38;;;;;;;2.15;0.63;;;;;;;;;;5065186;28;20117;-77
2021/12/16 03:12:57;;;;;;;2.42;0.63;;;;;;;;;;5047585;28;20106;-78
2021/12/16 03:18:10;;;;;;;2.15;0.60;;;;;;;;;;5043338;28;20569;-77
2021/12/16 03:21:15;;;;;;;2.35;0.70;;;;;;;;;;5044397;28;20091;-78
2021/12/16 03:36:48;;;;;;;2.55;0.80;;;;;;;;;;5055921;28;21541;-76
2021/12/16 03:39:14;;;;;;;2.25;0.60;;;;;;;;;;5059281;28;20052;-76
2021/12/16 03:41:41;;;;;;;2.70;0.90;;;;;;;;;;5065422;28;20104;-76
2021/12/16 03:44:11;;;;;;;1.75;0.63;;;;;;;;;;5063896;28;20056;-76
2021/12/16 03:46:40;;;;;;;2.20;0.73;;;;;;;;;;5065720;28;20101;-77
2021/12/16 03:49:06;;;;;;;2.47;0.68;;;;;;;;;;5057771;28;20526;-77
2021/12/16 03:51:32;;;;;;;1.58;0.60;;;;;;;;;;5065350;28;20637;-78
2021/12/16 03:54:04;;;;;;;1.48;0.52;;;;;;;;;;5048100;28;20141;-77
2021/12/16 03:56:31;;;;;;;2.63;0.77;;;;;;;;;;5061739;28;20169;-77
2021/12/16 03:58:57;;;;;;;2.10;0.80;;;;;;;;;;5066610;28;20133;-77
2021/12/16 04:01:25;;;;;;;4.22;0.68;;;;;;;;;;5057245;28;20064;-78
2021/12/16 04:03:52;;;;;;;1.23;0.55;;;;;;;;;;5063833;28;20041;-76
2021/12/16 04:06:20;;;;;;;2.28;0.70;;;;;;;;;;5060018;28;20052;-76
2021/12/16 04:08:46;;;;;;;2.60;0.80;;;;;;;;;;5057394;28;20458;-77
2021/12/16 04:11:21;;;;;;;4.28;1.00;;;;;;;;;;5051728;28;20178;-78
2021/12/16 04:13:59;;;;;;;2.33;0.88;;;;;;;;;;5060796;28;20473;-77
2021/12/16 04:16:26;;;;;;;3.42;0.80;;;;;;;;;;5061946;28;20040;-77
2021/12/16 04:18:52;;;;;;;3.53;0.98;;;;;;;;;;5065422;28;20052;-76
2021/12/16 04:21:20;;;;;;;3.05;0.70;;;;;;;;;;5058085;28;20085;-76
2021/12/16 04:23:47;;;;;;;4.00;0.80;;;;;;;;;;5063718;28;20086;-76
2021/12/16 04:26:14;;;;;;;4.05;0.77;;;;;;;;;;5065669;28;20051;-77
2021/12/16 04:28:42;;;;;;;2.40;0.63;;;;;;;;;;5057335;28;20069;-77
2021/12/16 04:31:10;;;;;;;3.63;0.75;;;;;;;;;;5058094;28;20057;-77
2021/12/16 04:33:39;;;;;;;2.90;0.80;;;;;;;;;;5061915;28;20560;-77
2021/12/16 04:36:08;;;;;;;3.17;0.80;;;;;;;;;;5065516;28;20068;-78
2021/12/16 04:38:35;;;;;;;2.28;0.70;;;;;;;;;;5067372;28;20032;-77
2021/12/16 04:41:02;;;;;;;4.05;0.95;;;;;;;;;;5066495;28;20068;-77
2021/12/16 04:43:38;;;;;;;2.50;1.00;;;;;;;;;;5065610;28;20551;-76
2021/12/16 04:46:06;;;;;;;2.80;0.57;;;;;;;;;;5064297;28;20782;-77
2021/12/16 04:48:33;;;;;;;6.07;0.95;;;;;;;;;;5065821;28;20114;-77
2021/12/16 04:51:00;;;;;;;5.50;1.23;;;;;;;;;;5063173;28;20064;-78
2021/12/16 04:53:26;;;;;;;3.72;0.80;;;;;;;;;;5066635;28;20070;-78
2021/12/16 04:55:53;;;;;;;2.15;0.73;;;;;;;;;;5066676;28;20064;-77
2021/12/16 04:58:19;;;;;;;5.28;1.20;;;;;;;;;;5065730;28;20048;-77
2021/12/16 05:00:46;;;;;;;2.47;0.70;;;;;;;;;;5067962;28;20194;-77
2021/12/16 05:03:12;;;;;;;3.97;1.10;;;;;;;;;;5066784;28;20063;-77
2021/12/16 05:05:39;;;;;;;3.33;1.10;;;;;;;;;;5071122;28;20052;-77
2021/12/16 05:08:06;;;;;;;3.95;0.93;;;;;;;;;;5073197;28;20032;-78
2021/12/16 05:10:32;;;;;;;5.20;1.00;;;;;;;;;;5074098;28;20040;-76
2021/12/16 05:13:00;;;;;;;4.18;1.02;;;;;;;;;;5069568;28;20087;-78
2021/12/16 05:15:31;;;;;;;3.55;1.20;;;;;;;;;;5070917;28;20455;-78
2021/12/16 05:18:00;;;;;;;5.47;1.10;;;;;;;;;;5032415;28;20097;-78
2021/12/16 05:20:31;;;;;;;3.75;1.10;;;;;;;;;;5065124;28;20449;-79
2021/12/16 05:28:10;;;;;;;4.35;1.13;;;;;;;;;;5068318;28;20488;-77
2021/12/16 05:30:37;;;;;;;3.78;1.23;;;;;;;;;;5049794;28;20276;-77
2021/12/16 05:33:04;;;;;;;3.30;1.10;;;;;;;;;;5066934;28;20090;-78
2021/12/16 05:35:31;;;;;;;3.35;1.05;;;;;;;;;;5068605;28;20110;-80
2021/12/16 05:37:57;;;;;;;4.22;1.10;;;;;;;;;;5061438;28;20059;-78
2021/12/16 05:40:27;;;;;;;5.20;1.25;;;;;;;;;;5061015;28;20044;-78
2021/12/16 05:42:54;;;;;;;7.57;1.30;;;;;;;;;;5066420;28;20064;-78
2021/12/16 05:45:23;;;;;;;4.80;1.27;;;;;;;;;;5065065;28;20102;-78
2021/12/16 05:47:50;;;;;;;4.55;1.50;;;;;;;;;;5065671;28;20123;-78
2021/12/16 05:50:17;;;;;;;5.38;1.48;;;;;;;;;;5066592;28;21412;-79
2021/12/16 05:52:44;;;;;;;3.17;1.00;;;;;;;;;;5068268;28;20071;-80
2021/12/16 05:55:12;;;;;;;5.43;1.17;;;;;;;;;;5067297;28;20064;-77
2021/12/16 05:57:38;;;;;;;3.08;0.98;;;;;;;;;;5068368;28;20087;-78
2021/12/16 06:00:06;;;;;;;5.50;1.20;;;;;;;;;;5046963;28;20056;-80
2021/12/16 06:02:32;;;;;;;5.82;1.20;;;;;;;;;;5050933;28;20056;-80
2021/12/16 06:04:58;;;;;;;5.78;1.15;;;;;;;;;;5067876;28;20098;-80
2021/12/16 06:07:25;;;;;;;4.47;1.02;;;;;;;;;;5063880;28;20106;-79
2021/12/16 06:09:51;;;;;;;5.78;1.02;;;;;;;;;;5066817;28;20036;-78
2021/12/16 06:12:18;;;;;;;3.47;1.10;;;;;;;;;;5069835;28;20460;-80
2021/12/16 06:15:19;;;;;;;5.20;1.02;;;;;;;;;;5065152;28;20056;-80
2021/12/16 06:26:33;;;;;;;5.97;1.17;;;;;;;;;;5060506;28;20078;-79
2021/12/16 06:29:00;;;;;;;5.03;1.30;;;;;;;;;;5066246;28;20036;-80
2021/12/16 06:31:27;;;;;;;2.13;0.75;;;;;;;;;;5047357;28;20032;-80
2021/12/16 06:33:54;;;;;;;4.60;1.00;;;;;;;;;;5069198;28;20043;-80
2021/12/16 06:36:20;;;;;;;4.82;1.23;;;;;;;;;;5069346;28;20060;-82
2021/12/16 06:38:46;;;;;;;3.97;1.10;;;;;;;;;;5069657;28;20090;-81
2021/12/16 06:41:13;;;;;;;6.18;1.30;;;;;;;;;;5050793;28;20067;-81
2021/12/16 06:43:40;;;;;;;4.40;1.25;;;;;;;;;;5068107;28;20441;-80
2021/12/16 06:46:11;;;;;;;5.43;1.05;;;;;;;;;;5067642;28;20074;-80
2021/12/16 06:48:40;;;;;;;5.95;1.15;;;;;;;;;;5058717;28;20044;-80
2021/12/16 06:51:12;;;;;;;4.07;1.13;;;;;;;;;;5066953;28;20052;-79
2021/12/16 06:54:19;;;;;;;2.95;0.98;;;;;;;;;;5069920;28;20460;-80
2021/12/16 06:56:39;;;;;;;3.22;0.80;;;;;;;;;;5065870;28;20082;-81
2021/12/16 06:59:20;;;;;;;6.10;1.50;;;;;;;;;;5063621;28;20737;-80
2021/12/16 07:02:01;;;;;;;3.53;1.00;;;;;;;;;;5067352;28;20036;-81
2021/12/16 07:04:28;;;;;;;4.87;1.17;;;;;;;;;;5067864;28;20029;-81
2021/12/16 07:06:55;;;;;;;5.38;1.40;;;;;;;;;;5068636;28;20056;-81
2021/12/16 07:09:21;;;;;;;5.43;1.10;;;;;;;;;;5064103;28;20068;-81
2021/12/16 07:11:51;;;;;;;4.78;1.17;;;;;;;;;;5068136;28;20577;-81
2021/12/16 07:14:19;;;;;;;5.75;1.10;;;;;;;;;;5068142;28;20064;-81
2021/12/16 07:16:47;;;;;;;2.75;0.88;;;;;;;;;;5068637;28;20459;-81
2021/12/16 07:19:14;;;;;;;4.10;0.90;;;;;;;;;;5067599;28;20052;-81
2021/12/16 07:21:41;;;;;;;5.15;1.10;;;;;;;;;;5061518;28;20028;-81
2021/12/16 07:24:08;;;;;;;3.47;0.98;;;;;;;;;;5067221;28;20029;-81
2021/12/16 07:26:35;;;;;;;6.80;1.45;;;;;;;;;;5068377;28;20052;-80
2021/12/16 07:29:03;;;;;;;6.57;1.33;;;;;;;;;;5066629;28;20090;-80
2021/12/16 07:31:30;;;;;;;3.97;0.90;;;;;;;;;;5065049;28;20041;-81
2021/12/16 07:33:57;;;;;;;6.15;1.10;;;;;;;;;;5067971;28;20502;-80
2021/12/16 07:36:24;;;;;;;5.03;1.17;;;;;;;;;;5067110;28;20450;-80
2021/12/16 07:38:51;;;;;;;4.38;1.20;;;;;;;;;;5068955;28;20056;-81
2021/12/16 07:41:21;;;;;;;4.72;1.17;;;;;;;;;;5068092;28;20454;-80
2021/12/16 07:43:58;;;;;;;4.15;1.10;;;;;;;;;;5068732;28;20060;-80
2021/12/16 07:46:25;;;;;;;5.03;1.10;;;;;;;;;;5067244;28;20111;-81
2021/12/16 07:48:52;;;;;;;5.43;1.40;;;;;;;;;;5065381;28;20060;-80
2021/12/16 07:51:18;;;;;;;5.30;1.42;;;;;;;;;;5065182;28;20064;-80
2021/12/16 07:53:45;;;;;;;3.03;0.90;;;;;;;;;;5066878;28;20060;-81
2021/12/16 07:56:11;;;;;;;4.28;1.20;;;;;;;;;;5067593;28;21627;-80
2021/12/16 07:58:38;;;;;;;4.35;0.77;;;;;;;;;;5065690;28;20393;-80
2021/12/16 08:01:05;;;;;;;6.28;1.20;;;;;;;;;;5067642;28;20052;-79
2021/12/16 08:03:35;;;;;;;3.58;0.98;;;;;;;;;;5063222;28;20037;-81
2021/12/16 08:06:05;;;;;;;4.78;1.17;;;;;;;;;;5067640;28;20169;-81
2021/12/16 08:08:32;;;;;;;6.13;1.15;;;;;;;;;;5069450;28;21555;-81
2021/12/16 08:10:59;;;;;;;4.80;1.00;;;;;;;;;;5068193;28;20569;-81
2021/12/16 08:13:26;;;;;;;3.97;1.00;;;;;;;;;;5076174;28;20106;-81
2021/12/16 08:15:53;;;;;;;6.20;1.15;;;;;;;;;;5073339;28;20515;-80
2021/12/16 08:18:19;;;;;;;4.95;1.13;;;;;;;;;;5069155;28;20064;-80
2021/12/16 08:20:46;;;;;;;3.53;0.98;;;;;;;;;;5073385;28;20610;-80
2021/12/16 08:23:15;;;;;;;3.38;1.00;;;;;;;;;;5071321;28;20173;-80
2021/12/16 08:25:42;;;;;;;5.00;1.50;;;;;;;;;;5056169;28;20097;-80
2021/12/16 08:28:08;;;;;;;4.65;1.00;;;;;;;;;;5070972;28;20079;-79
2021/12/16 08:30:37;;;;;;;5.88;1.05;;;;;;;;;;5071586;28;20090;-80
2021/12/16 08:33:08;;;;;;;3.80;1.00;;;;;;;;;;5072080;28;20032;-79
2021/12/16 08:35:35;;;;;;;3.00;1.02;;;;;;;;;;5047024;28;20075;-80
2021/12/16 08:38:01;;;;;;;6.55;1.70;;;;;;;;;;5070825;28;20056;-85
2021/12/16 08:40:28;;;;;;;3.60;1.13;;;;;;;;;;5071693;28;20059;-80
2021/12/16 08:42:55;;;;;;;4.70;1.00;;;;;;;;;;5070752;28;20033;-81
2021/12/16 08:45:28;;;;;;;4.90;1.15;;;;;;;;;;5054238;28;20024;-81
2021/12/16 08:47:55;;;;;;;5.20;0.98;;;;;;;;;;5075703;28;20438;-81
2021/12/16 08:50:23;;;;;;;3.63;1.08;;;;;;;;;;5073053;28;20044;-79
2021/12/16 08:52:49;;;;;;;3.08;1.00;;;;;;;;;;5077127;28;20504;-80
2021/12/16 08:55:16;;;;;;;3.08;1.00;;;;;;;;;;5073671;28;20048;-80
2021/12/16 08:57:43;;;;;;;5.90;1.05;;;;;;;;;;5079817;28;20044;-80
2021/12/16 09:00:12;;;;;;;4.25;1.10;;;;;;;;;;5066639;28;20492;-81
2021/12/16 09:02:38;;;;;;;8.13;1.60;;;;;;;;;;5074322;28;20480;-80
2021/12/16 09:05:06;;;;;;;5.60;1.27;;;;;;;;;;5074376;28;20400;-79
2021/12/16 09:07:32;;;;;;;4.63;1.00;;;;;;;;;;5076457;28;20033;-80
2021/12/16 09:09:59;;;;;;;5.20;1.35;;;;;;;;;;5089130;28;20101;-81
2021/12/16 09:13:12;;;;;;;3.15;0.90;;;;;;;;;;5082990;28;20138;-80
2021/12/16 09:15:13;;;;;;;3.55;1.08;;;;;;;;;;5076670;28;20041;-80
2021/12/16 09:17:39;;;;;;;4.18;1.13;;;;;;;;;;5073515;28;20017;-80
2021/12/16 09:20:07;;;;;;;4.63;1.35;;;;;;;;;;5084571;28;20033;-79
2021/12/16 09:22:44;;;;;;;5.40;1.27;;;;;;;;;;5079258;28;20063;-83
2021/12/16 09:25:24;;;;;;;3.90;0.90;;;;;;;;;;5080986;28;20028;-82
2021/12/16 09:28:28;;;;;;;;;;;;;;;;;;;;;
2021/12/16 09:31:25;;;;;;;6.97;1.20;;;;;;;;;;5036953;28;20036;-83
2021/12/16 09:37:09;;;;;;;4.28;0.98;;;;;;;;;;4956469;28;20100;-82
2021/12/16 09:40:02;;;;;;;5.68;1.25;;;;;;;;;;5019963;28;20075;-83
2021/12/16 09:42:59;;;;;;;3.83;1.00;;;;;;;;;;5019914;28;20120;-83
2021/12/16 09:45:45;;;;;;;4.20;1.33;;;;;;;;;;5054068;28;20482;-79
2021/12/16 09:48:58;;;;;;;;;;;;;;;;;;;;;
2021/12/16 09:51:40;;;;;;;;;;;;;;;;;;;;;
2021/12/16 09:54:27;;;;;;;3.80;0.90;;;;;;;;;;5021975;28;20055;-81
2021/12/16 09:56:57;;;;;;;5.35;1.30;;;;;;;;;;5035824;28;20036;-84
2021/12/16 09:59:53;;;;;;;3.67;1.10;;;;;;;;;;4992090;28;20040;-82
2021/12/16 10:02:55;;;;;;;6.00;1.27;;;;;;;;;;4969214;28;20838;-83
2021/12/16 10:05:37;;;;;;;2.25;0.88;;;;;;;;;;5066201;28;20063;-82
2021/12/16 10:08:10;;;;;;;5.15;1.00;;;;;;;;;;5043223;28;20021;-82
2021/12/16 10:14:58;;;;;;;4.55;1.08;;;;;;;;;;4968591;28;20052;-82
2021/12/16 10:17:32;;;;;;;6.07;1.08;;;;;;;;;;4975724;28;20520;-84
2021/12/16 10:20:11;;;;;;;4.78;1.40;;;;;;;;;;4962736;28;20042;-83
2021/12/16 10:22:58;;;;;;;4.45;1.08;;;;;;;;;;4949476;28;20081;-85
2021/12/16 10:26:06;;;;;;;5.10;1.20;;;;;;;;;;4864552;28;20045;-82
2021/12/16 10:28:43;;;;;;;4.22;1.40;;;;;;;;;;4957066;28;20048;-81
2021/12/16 10:31:31;;;;;;;6.53;1.40;;;;;;;;;;4955586;28;20071;-85
2021/12/16 10:34:21;;;;;;;3.03;0.93;;;;;;;;;;5014428;28;20075;-85
2021/12/16 10:37:06;;;;;;;5.03;1.05;;;;;;;;;;5025735;28;20467;-82
2021/12/16 10:39:45;;;;;;;3.13;1.25;;;;;;;;;;5051688;28;20061;-85
2021/12/16 10:42:37;;;;;;;3.20;1.20;;;;;;;;;;5033212;28;20501;-84
2021/12/16 10:45:16;;;;;;;;;;;;;;;;;;;;;
2021/12/16 10:48:43;;;;;;;3.22;1.02;;;;;;;;;;5020303;28;19923;-84
2021/12/16 10:51:54;;;;;;;5.97;1.10;;;;;;;;;;4941286;28;20043;-83
2021/12/16 10:55:09;;;;;;;5.70;1.15;;;;;;;;;;4881908;29;20107;-81
2021/12/16 10:57:57;;;;;;;4.43;1.00;;;;;;;;;;4931308;29;20318;-82
2021/12/16 11:00:53;;;;;;;6.10;1.10;;;;;;;;;;4924707;29;20028;-84
2021/12/16 11:07:15;;;;;;;3.85;1.38;;;;;;;;;;5037662;28;20040;-84
2021/12/16 11:10:25;;;;;;;4.15;1.00;;;;;;;;;;5001171;28;20036;-84
2021/12/16 11:15:59;;;;;;;6.25;1.15;;;;;;;;;;4979437;28;20038;-84
2021/12/16 11:18:47;;;;;;;5.03;1.02;;;;;;;;;;4997698;28;20030;-82
2021/12/16 11:21:41;;;;;;;3.53;1.08;;;;;;;;;;4994398;28;20045;-85
2021/12/16 11:24:43;;;;;;;4.55;1.35;;;;;;;;;;5017456;28;20037;-80
2021/12/16 11:27:30;;;;;;;7.28;1.63;;;;;;;;;;4903025;29;20110;-85
2021/12/16 11:30:25;;;;;;;5.80;1.05;;;;;;;;;;4899867;29;20028;-80
2021/12/16 11:33:15;;;;;;;3.10;1.10;;;;;;;;;;4887074;29;20032;-86
2021/12/16 11:35:55;;;;;;;4.93;1.10;;;;;;;;;;4920051;29;20147;-83
2021/12/16 11:38:47;;;;;;;5.72;1.30;;;;;;;;;;4874780;29;20520;-87
2021/12/16 11:41:19;;;;;;;3.05;1.05;;;;;;;;;;4878749;29;20050;-87
2021/12/16 11:44:07;;;;;;;5.03;0.95;;;;;;;;;;4896597;29;20035;-82
2021/12/16 11:46:50;;;;;;;4.18;1.30;;;;;;;;;;4902252;29;20036;-83
2021/12/16 11:49:22;;;;;;;5.53;1.17;;;;;;;;;;5035310;28;20086;-84
2021/12/16 11:52:16;;;;;;;3.28;1.00;;;;;;;;;;5007470;28;20048;-82
2021/12/16 11:54:51;;;;;;;3.15;1.08;;;;;;;;;;4985178;28;20045;-82
2021/12/16 11:57:35;;;;;;;4.50;1.08;;;;;;;;;;5019183;28;20116;-84
2021/12/16 12:00:35;;;;;;;3.83;1.10;;;;;;;;;;5041822;28;20040;-83
2021/12/16 12:14:33;;;;;;;3.15;0.93;;;;;;;;;;4736578;29;20084;-81
2021/12/16 12:17:28;;;;;;;5.70;1.42;;;;;;;;;;4752726;29;20105;-81
2021/12/16 12:20:45;;;;;;;4.20;1.20;;;;;;;;;;4747774;29;20043;-81
2021/12/16 12:23:32;;;;;;;5.53;1.27;;;;;;;;;;4709374;29;20059;-80
2021/12/16 12:30:34;;;;;;;5.28;1.48;;;;;;;;;;4707315;29;20518;-79
2021/12/16 12:40:32;;;;;;;;;;;;;;;;;;;;;
2021/12/16 12:50:45;;;;;;;;;;;;;;;;;;;;;
2021/12/16 12:53:11;;;;;;;6.95;1.13;;;;;;;;;;4786597;29;20042;-82
2021/12/16 12:59:49;;;;;;;;;;;;;;;;;;;;;
2021/12/16 13:03:17;;;;;;;5.15;1.05;;;;;;;;;;4798920;29;20045;-82
2021/12/16 13:06:05;;;;;;;5.70;1.23;;;;;;;;;;4785380;29;20077;-80
2021/12/16 13:09:27;;;;;;;4.90;1.00;;;;;;;;;;4808153;29;20038;-79
2021/12/16 13:12:42;;;;;;;4.43;1.15;;;;;;;;;;4803072;29;20065;-81
2021/12/16 13:23:50;;;;;;;3.67;0.93;;;;;;;;;;4869197;29;20036;-79
2021/12/16 13:26:42;;;;;;;4.35;1.00;;;;;;;;;;4871384;29;20112;-82
2021/12/16 13:39:19;;;;;;;3.33;1.10;;;;;;;;;;4921917;28;20043;-79
2021/12/16 13:42:15;;;;;;;6.75;1.25;;;;;;;;;;4901574;28;20034;-80
2021/12/16 13:45:21;;;;;;;5.43;1.13;;;;;;;;;;4991571;28;20044;-80
2021/12/16 14:04:51;;;;;;;;;;;;;;;;;;;;;
2021/12/16 14:24:48;;;;;;;2.97;0.80;;;;;;;;;;4904858;28;20120;-81
2021/12/16 14:31:06;;;;;;;4.47;1.27;;;;;;;;;;4908151;29;20050;-80
2021/12/16 14:37:32;;;;;;;;;;;;;;;;;;;;;
2021/12/16 14:40:36;;;;;;;5.60;1.08;;;;;;;;;;4911329;28;20122;-80
2021/12/16 14:47:16;;;;;;;7.32;1.55;;;;;;;;;;4927736;28;20538;-82
2021/12/16 14:53:45;;;;;;;;;;;;;;;;;;;;;
2021/12/16 14:56:42;;;;;;;3.95;0.75;;;;;;;;;;4849906;29;20105;-81
2021/12/16 15:02:47;;;;;;;3.97;1.00;;;;;;;;;;4889335;29;20111;-81
2021/12/16 15:09:15;;;;;;;4.25;1.30;;;;;;;;;;4875808;29;20285;-79
2021/12/16 15:39:11;;;;;;;7.65;1.45;;;;;;;;;;4908337;28;20046;-82
2021/12/16 15:45:43;;;;;;;3.53;1.20;;;;;;;;;;4909460;28;20075;-81
2021/12/16 15:51:52;;;;;;;6.30;1.73;;;;;;;;;;4872013;28;20047;-79
2021/12/16 15:54:57;;;;;;;;;;;;;;;;;;;;;
2021/12/16 15:57:30;;;;;;;2.67;0.93;;;;;;;;;;5038154;28;20042;-80
2021/12/16 16:00:26;;;;;;;5.72;1.05;;;;;;;;;;4971022;28;20027;-79
2021/12/16 16:06:59;;;;;;;;;;;;;;;;;;;;;
2021/12/16 16:10:18;;;;;;;6.18;0.93;;;;;;;;;;4874304;29;20111;-86
2021/12/16 16:15:52;;;;;;;3.72;1.10;;;;;;;;;;4900824;28;21804;-87
2021/12/16 16:20:55;;;;;;;6.50;1.15;;;;;;;;;;4968990;28;20070;-85
2021/12/16 16:23:23;;;;;;;6.43;2.03;;;;;;;;;;5001445;28;20059;-86
2021/12/16 16:25:50;;;;;;;5.80;1.40;;;;;;;;;;5052741;28;20029;-88
2021/12/16 16:28:16;;;;;;;5.68;1.35;;;;;;;;;;5037778;28;20060;-87
2021/12/16 16:30:44;;;;;;;3.67;1.00;;;;;;;;;;5055462;28;20044;-89
2021/12/16 16:33:16;;;;;;;3.78;1.42;;;;;;;;;;5058267;28;20041;-87
2021/12/16 16:36:03;;;;;;;5.35;1.17;;;;;;;;;;5054933;28;20041;-88
2021/12/16 16:38:35;;;;;;;8.20;2.08;;;;;;;;;;5052695;28;20147;-88
2021/12/16 16:41:03;;;;;;;6.05;1.90;;;;;;;;;;5056620;28;20029;-87
2021/12/16 16:43:31;;;;;;;4.05;1.90;;;;;;;;;;5055367;28;20358;-86
2021/12/16 16:46:01;;;;;;;9.05;2.05;;;;;;;;;;5053213;28;20041;-86
2021/12/16 16:48:53;;;;;;;7.63;1.40;;;;;;;;;;5057660;28;20041;-86
2021/12/16 16:51:24;;;;;;;7.88;1.70;;;;;;;;;;5049038;28;20041;-87
2021/12/16 16:53:53;;;;;;;4.80;1.52;;;;;;;;;;5053372;28;20029;-86
2021/12/16 16:56:32;;;;;;;7.53;1.90;;;;;;;;;;5061229;28;20068;-87
2021/12/16 16:59:02;;;;;;;6.40;1.42;;;;;;;;;;5063996;28;20036;-87
2021/12/16 17:01:30;;;;;;;6.68;1.55;;;;;;;;;;5037951;28;20040;-87
2021/12/16 17:03:56;;;;;;;4.88;1.10;;;;;;;;;;5047997;28;20045;-85
2021/12/16 17:06:23;;;;;;;5.88;1.73;;;;;;;;;;5058166;28;20037;-85
2021/12/16 17:08:49;;;;;;;8.02;2.03;;;;;;;;;;5037181;28;20029;-84
2021/12/16 17:11:20;;;;;;;7.80;1.67;;;;;;;;;;5053638;28;20044;-84
2021/12/16 17:19:04;;;;;;;7.30;1.88;;;;;;;;;;5062550;28;20484;-89
2021/12/16 17:21:38;;;;;;;11.57;3.20;;;;;;;;;;5050323;28;20033;-86
2021/12/16 17:24:13;;;;;;;9.90;2.72;;;;;;;;;;5050369;28;20041;-79
2021/12/16 17:26:39;;;;;;;14.35;3.60;;;;;;;;;;5054573;28;20033;-88
2021/12/16 17:29:14;;;;;;;11.40;3.33;;;;;;;;;;5063403;28;20060;-86
2021/12/16 17:31:45;;;;;;;9.98;2.85;;;;;;;;;;5059758;28;20072;-87
2021/12/16 17:34:12;;;;;;;11.50;3.05;;;;;;;;;;5049606;28;20061;-81
2021/12/16 17:36:56;;;;;;;14.88;3.22;;;;;;;;;;5050662;28;20457;-84
2021/12/16 17:39:25;;;;;;;10.80;2.30;;;;;;;;;;5049265;28;20065;-83
2021/12/16 17:42:04;;;;;;;18.30;3.95;;;;;;;;;;5029114;28;20040;-84
2021/12/16 17:44:31;;;;;;;13.43;2.90;;;;;;;;;;5048402;28;20056;-85
2021/12/16 17:47:12;;;;;;;12.25;3.13;;;;;;;;;;5052449;28;20048;-84
2021/12/16 17:49:39;;;;;;;18.70;3.35;;;;;;;;;;5062211;28;21232;-90
2021/12/16 17:52:08;;;;;;;13.40;3.72;;;;;;;;;;5062750;28;20080;-87
2021/12/16 17:54:44;;;;;;;11.10;2.85;;;;;;;;;;5068278;28;21261;-89
2021/12/16 17:57:11;;;;;;;16.38;3.00;;;;;;;;;;5062619;28;20033;-87
2021/12/16 17:59:39;;;;;;;11.27;2.83;;;;;;;;;;5059617;28;20033;-91
2021/12/16 18:02:06;;;;;;;10.15;2.88;;;;;;;;;;5052545;28;20037;-89
2021/12/16 18:04:34;;;;;;;17.40;2.75;;;;;;;;;;5049116;28;20052;-91
2021/12/16 18:07:02;;;;;;;9.80;2.60;;;;;;;;;;5035692;28;20108;-90
2021/12/16 18:09:32;;;;;;;8.95;2.30;;;;;;;;;;5035557;28;20059;-86
2021/12/16 18:11:59;;;;;;;14.32;3.15;;;;;;;;;;5048118;28;20059;-88
2021/12/16 18:14:28;;;;;;;14.35;3.10;;;;;;;;;;5029213;28;20053;-88
2021/12/16 18:16:57;;;;;;;13.50;3.08;;;;;;;;;;5049668;28;20539;-87
2021/12/16 18:19:30;;;;;;;8.48;2.47;;;;;;;;;;5051427;28;20041;-87
2021/12/16 18:21:58;;;;;;;10.98;2.38;;;;;;;;;;5060732;28;20077;-85
2021/12/16 18:24:32;;;;;;;9.07;2.13;;;;;;;;;;5037266;28;20112;-87
2021/12/16 18:26:58;;;;;;;9.98;2.47;;;;;;;;;;5063840;28;20033;-84
2021/12/16 18:29:25;;;;;;;8.20;2.10;;;;;;;;;;5066329;28;20029;-87
2021/12/16 18:31:52;;;;;;;7.70;2.13;;;;;;;;;;5070603;28;20037;-87
2021/12/16 18:34:21;;;;;;;7.78;2.05;;;;;;;;;;5069084;28;20033;-85
2021/12/16 18:36:49;;;;;;;13.13;1.92;;;;;;;;;;5066806;28;20049;-89
2021/12/16 18:39:18;;;;;;;8.23;2.17;;;;;;;;;;5070091;28;20598;-87
2021/12/16 18:41:48;;;;;;;9.55;2.08;;;;;;;;;;5071890;28;20036;-89
2021/12/16 18:44:30;;;;;;;12.52;2.50;;;;;;;;;;5067842;28;20029;-90
2021/12/16 18:46:58;;;;;;;10.25;2.58;;;;;;;;;;5059709;28;20037;-91
2021/12/16 18:49:36;;;;;;;9.10;2.20;;;;;;;;;;5045075;28;20025;-88
2021/12/16 18:54:34;;;;;;;12.63;2.53;;;;;;;;;;5040766;28;20267;-89
2021/12/16 18:57:04;;;;;;;;;;;;;;;;;;5055835;28;20045;-88
2021/12/16 18:59:31;;;;;;;10.63;2.95;;;;;;;;;;5054343;28;19929;-87
2021/12/16 19:01:59;;;;;;;11.73;2.88;;;;;;;;;;5047702;28;20029;-89
2021/12/16 19:04:28;;;;;;;10.25;1.98;;;;;;;;;;5031923;28;20636;-88
2021/12/16 19:07:00;;;;;;;9.13;2.60;;;;;;;;;;5055854;28;20056;-87
2021/12/16 19:09:27;;;;;;;8.23;2.28;;;;;;;;;;5050418;28;24902;-89
2021/12/16 19:11:57;;;;;;;7.75;2.28;;;;;;;;;;5048141;28;20095;-86
2021/12/16 19:14:26;;;;;;;9.63;2.78;;;;;;;;;;5040665;28;20060;-88
2021/12/16 19:16:53;;;;;;;9.65;2.30;;;;;;;;;;5049953;28;20045;-86
2021/12/16 19:19:20;;;;;;;7.53;2.33;;;;;;;;;;5046922;28;20068;-84
2021/12/16 19:21:50;;;;;;;6.65;1.90;;;;;;;;;;5048165;28;20059;-84
2021/12/16 19:24:18;;;;;;;12.60;2.10;;;;;;;;;;5035988;28;20056;-83
2021/12/16 19:26:44;;;;;;;9.38;2.25;;;;;;;;;;5029722;28;20419;-84
2021/12/16 19:29:11;;;;;;;9.00;2.53;;;;;;;;;;5045878;28;20041;-83
2021/12/16 19:31:41;;;;;;;11.57;2.67;;;;;;;;;;5028753;28;20114;-83
2021/12/16 19:34:09;;;;;;;9.20;1.95;;;;;;;;;;5044655;28;20038;-83
2021/12/16 19:36:36;;;;;;;10.05;2.08;;;;;;;;;;5029603;28;20126;-84
2021/12/16 19:39:03;;;;;;;7.07;1.83;;;;;;;;;;5038306;28;20060;-83
2021/12/16 19:41:31;;;;;;;6.55;1.45;;;;;;;;;;5013800;28;20068;-83
2021/12/16 19:43:57;;;;;;;7.38;1.75;;;;;;;;;;5044769;28;20060;-84
2021/12/16 19:46:30;;;;;;;7.72;1.67;;;;;;;;;;5044721;28;20128;-83
2021/12/16 19:48:57;;;;;;;6.03;1.55;;;;;;;;;;5047244;28;20040;-85
2021/12/16 19:51:26;;;;;;;6.15;1.77;;;;;;;;;;5027017;28;20094;-85
2021/12/16 19:53:52;;;;;;;7.95;1.38;;;;;;;;;;5017049;28;20091;-84
2021/12/16 19:56:19;;;;;;;8.35;2.00;;;;;;;;;;5020429;28;20061;-84
2021/12/16 19:58:46;;;;;;;8.10;2.03;;;;;;;;;;5018578;28;20029;-85
2021/12/16 20:01:21;;;;;;;8.25;1.98;;;;;;;;;;5025644;28;20075;-82
2021/12/16 20:03:51;;;;;;;6.50;1.58;;;;;;;;;;5032315;28;20079;-85
2021/12/16 20:06:19;;;;;;;9.25;1.73;;;;;;;;;;5057544;28;20067;-84
2021/12/16 20:08:47;;;;;;;5.50;1.67;;;;;;;;;;5055993;28;20083;-85
2021/12/16 20:11:15;;;;;;;7.75;1.80;;;;;;;;;;5056103;28;20838;-83
2021/12/16 20:13:45;;;;;;;6.70;1.42;;;;;;;;;;5051588;28;20041;-79
2021/12/16 20:16:13;;;;;;;6.63;1.60;;;;;;;;;;5039299;28;20429;-75
2021/12/16 20:18:41;;;;;;;4.90;1.23;;;;;;;;;;5055757;28;20033;-76
2021/12/16 20:21:12;;;;;;;6.47;1.55;;;;;;;;;;5062203;28;20036;-76
2021/12/16 20:23:39;;;;;;;7.47;2.20;;;;;;;;;;5044551;28;20068;-75
2021/12/16 20:26:13;;;;;;;6.68;1.30;;;;;;;;;;5063204;28;20053;-77
2021/12/16 20:28:49;;;;;;;8.68;2.08;;;;;;;;;;5063357;28;20059;-81
2021/12/16 20:31:23;;;;;;;4.97;1.20;;;;;;;;;;5051233;28;20044;-77
2021/12/16 20:34:09;;;;;;;6.40;1.57;;;;;;;;;;5069267;28;20013;-74
2021/12/16 20:36:48;;;;;;;5.63;1.42;;;;;;;;;;5058480;28;20048;-75
2021/12/16 20:39:44;;;;;;;7.43;1.70;;;;;;;;;;5064058;28;20558;-75
2021/12/16 20:42:21;;;;;;;9.88;1.77;;;;;;;;;;5039532;28;20509;-77
2021/12/16 20:44:49;;;;;;;5.65;1.55;;;;;;;;;;5068890;28;20477;-75
2021/12/16 20:47:19;;;;;;;6.38;1.80;;;;;;;;;;5060392;28;20091;-75
2021/12/16 20:49:47;;;;;;;7.45;2.08;;;;;;;;;;5054755;28;20063;-75
2021/12/16 20:52:15;;;;;;;6.25;1.50;;;;;;;;;;5053030;28;20562;-75
2021/12/16 20:54:43;;;;;;;7.18;1.95;;;;;;;;;;5051567;28;20041;-75
2021/12/16 20:57:11;;;;;;;6.32;1.40;;;;;;;;;;5044830;28;20499;-76